createdAt,value
2017-10-14T00:01:49.932Z,37.43
2017-10-14T00:04:16.096Z,43.60
2017-10-14T00:06:42.171Z,34.03
2017-10-14T00:09:08.984Z,37.93
2017-10-14T00:11:35.056Z,35.00
2017-10-14T00:14:01.135Z,37.80
2017-10-14T00:16:27.204Z,34.90
2017-10-14T00:18:53.315Z,39.57
2017-10-14T00:21:19.412Z,51.00
2017-10-14T00:23:46.224Z,41.53
2017-10-14T00:26:12.293Z,48.57
2017-10-14T00:28:38.376Z,44.07
2017-10-14T00:31:04.469Z,38.67
2017-10-14T00:33:30.565Z,39.60
2017-10-14T00:35:56.629Z,43.07
2017-10-14T00:38:22.745Z,36.07
2017-10-14T00:40:48.840Z,39.63
2017-10-14T00:43:15.000Z,38.27
2017-10-14T00:45:41.092Z,39.47
2017-10-14T00:48:07.180Z,37.53
2017-10-14T00:50:33.241Z,38.60
2017-10-14T00:52:59.313Z,41.43
2017-10-14T00:55:26.147Z,37.40
2017-10-14T00:57:52.225Z,34.37
2017-10-14T01:00:18.288Z,40.47
2017-10-14T01:02:44.413Z,39.40
2017-10-14T01:05:10.493Z,39.07
2017-10-14T01:07:36.573Z,39.57
2017-10-14T01:10:02.666Z,35.93
2017-10-14T01:12:28.896Z,37.50
2017-10-14T01:14:54.985Z,45.23
2017-10-14T01:17:21.912Z,43.10
2017-10-14T01:19:48.000Z,39.83
2017-10-14T01:22:14.071Z,36.53
2017-10-14T01:24:40.174Z,40.20
2017-10-14T01:27:06.276Z,37.80
2017-10-14T01:29:33.101Z,42.00
2017-10-14T01:31:59.208Z,39.33
2017-10-14T01:34:25.265Z,39.97
2017-10-14T01:36:51.329Z,43.87
2017-10-14T01:39:17.521Z,43.23
2017-10-14T01:41:43.601Z,47.63
2017-10-14T01:44:09.669Z,40.23
2017-10-14T01:46:35.747Z,43.23
2017-10-14T01:49:01.811Z,43.70
2017-10-14T01:51:27.881Z,35.93
2017-10-14T01:53:53.964Z,40.67
2017-10-14T01:56:20.024Z,41.80
2017-10-14T01:58:46.089Z,43.23
2017-10-14T02:01:12.186Z,44.57
2017-10-14T02:03:38.244Z,41.10
2017-10-14T02:06:05.069Z,43.20
2017-10-14T02:08:31.173Z,39.77
2017-10-14T02:10:57.240Z,41.47
2017-10-14T02:13:23.316Z,41.10
2017-10-14T02:15:50.168Z,44.33
2017-10-14T02:18:16.977Z,37.93
2017-10-14T02:20:43.057Z,39.90
2017-10-14T02:23:09.907Z,40.33
2017-10-14T02:25:36.780Z,36.60
2017-10-14T02:28:03.595Z,41.57
2017-10-14T02:30:29.728Z,36.40
2017-10-14T02:32:55.805Z,38.80
2017-10-14T02:35:22.623Z,45.17
2017-10-14T02:37:48.706Z,35.93
2017-10-14T02:40:14.816Z,40.83
2017-10-14T02:42:40.872Z,36.67
2017-10-14T02:45:07.699Z,42.97
2017-10-14T02:47:33.793Z,37.37
2017-10-14T02:49:59.867Z,36.60
2017-10-14T02:52:25.966Z,43.60
2017-10-14T02:54:52.049Z,39.47
2017-10-14T02:57:18.131Z,32.90
2017-10-14T02:59:44.219Z,34.07
2017-10-14T03:02:10.303Z,39.97
2017-10-14T03:04:36.364Z,34.67
2017-10-14T03:07:02.456Z,35.13
2017-10-14T03:09:29.263Z,33.50
2017-10-14T03:11:55.344Z,36.53
2017-10-14T03:14:22.235Z,31.03
2017-10-14T03:16:48.311Z,40.33
2017-10-14T03:19:14.367Z,35.60
2017-10-14T03:21:41.204Z,30.67
2017-10-14T03:24:07.392Z,33.60
2017-10-14T03:26:33.455Z,27.23
2017-10-14T03:28:59.549Z,30.43
2017-10-14T03:31:25.654Z,26.57
2017-10-14T03:33:51.720Z,32.67
2017-10-14T03:36:18.528Z,27.07
2017-10-14T03:38:44.594Z,27.20
2017-10-14T03:41:10.661Z,29.63
2017-10-14T03:43:36.729Z,33.90
2017-10-14T03:46:02.788Z,29.67
2017-10-14T03:48:28.871Z,28.70
2017-10-14T03:50:54.933Z,27.47
2017-10-14T03:53:21.008Z,28.73
2017-10-14T03:55:47.096Z,29.30
2017-10-14T03:58:13.170Z,25.70
2017-10-14T04:00:39.233Z,28.10
2017-10-14T04:03:06.062Z,26.53
2017-10-14T04:05:32.122Z,30.17
2017-10-14T04:07:58.915Z,28.53
2017-10-14T04:10:25.004Z,31.73
2017-10-14T04:12:51.075Z,29.27
2017-10-14T04:15:17.140Z,30.50
2017-10-14T04:17:43.235Z,30.97
2017-10-14T04:20:10.032Z,30.10
2017-10-14T04:22:36.103Z,26.93
2017-10-14T04:25:02.205Z,30.73
2017-10-14T04:27:28.264Z,28.03
2017-10-14T04:29:54.361Z,27.20
2017-10-14T04:32:20.464Z,28.03
2017-10-14T04:34:47.268Z,25.70
2017-10-14T04:37:13.320Z,24.90
2017-10-14T04:39:39.412Z,28.20
2017-10-14T04:42:05.461Z,32.23
2017-10-14T04:44:31.533Z,25.37
2017-10-14T04:46:57.635Z,31.13
2017-10-14T04:49:23.756Z,31.10
2017-10-14T04:51:49.828Z,28.53
2017-10-14T04:54:15.931Z,30.73
2017-10-14T04:56:41.995Z,27.97
2017-10-14T04:59:08.070Z,29.97
2017-10-14T05:01:34.171Z,30.43
2017-10-14T05:04:00.232Z,26.70
2017-10-14T05:06:26.303Z,33.03
2017-10-14T05:08:53.185Z,24.53
2017-10-14T05:11:19.251Z,29.90
2017-10-14T05:13:45.327Z,28.13
2017-10-14T05:16:12.171Z,25.30
2017-10-14T05:18:38.248Z,24.63
2017-10-14T05:21:04.313Z,27.13
2017-10-14T05:23:30.448Z,31.57
2017-10-14T05:25:56.507Z,32.13
2017-10-14T05:28:22.561Z,26.37
2017-10-14T05:30:49.066Z,30.37
2017-10-14T05:33:15.124Z,36.30
2017-10-14T05:35:41.204Z,30.47
2017-10-14T05:38:07.283Z,30.57
2017-10-14T05:40:33.363Z,30.07
2017-10-14T05:43:00.174Z,28.70
2017-10-14T05:45:26.266Z,33.27
2017-10-14T05:47:53.076Z,32.10
2017-10-14T05:50:19.143Z,28.13
2017-10-14T05:52:46.010Z,34.03
2017-10-14T05:55:12.866Z,29.90
2017-10-14T05:57:39.681Z,30.33
2017-10-14T06:00:05.784Z,29.30
2017-10-14T06:02:31.908Z,31.60
2017-10-14T06:04:57.981Z,26.20
2017-10-14T06:07:24.071Z,33.37
2017-10-14T06:09:50.128Z,28.47
2017-10-14T06:12:16.202Z,28.00
2017-10-14T06:14:42.354Z,33.80
2017-10-14T06:17:08.420Z,26.13
2017-10-14T06:19:34.585Z,27.20
2017-10-14T06:22:00.752Z,24.50
2017-10-14T06:24:26.817Z,28.10
2017-10-14T06:26:53.705Z,31.53
2017-10-14T06:29:19.789Z,25.93
2017-10-14T06:31:45.928Z,27.17
2017-10-14T06:34:12.009Z,27.50
2017-10-14T06:36:38.199Z,29.30
2017-10-14T06:39:04.320Z,27.93
2017-10-14T06:41:30.387Z,25.10
2017-10-14T06:43:56.485Z,35.00
2017-10-14T06:46:22.552Z,25.60
2017-10-14T06:48:48.645Z,27.13
2017-10-14T06:51:14.754Z,41.93
2017-10-14T06:53:41.625Z,30.77
2017-10-14T06:56:07.696Z,22.80
2017-10-14T06:58:33.791Z,27.73
2017-10-14T07:01:00.604Z,24.60
2017-10-14T07:03:26.665Z,23.80
2017-10-14T07:05:52.884Z,26.97
2017-10-14T07:08:18.976Z,28.67
2017-10-14T07:10:45.076Z,23.10
2017-10-14T07:13:11.254Z,22.90
2017-10-14T07:15:37.384Z,21.93
2017-10-14T07:18:03.516Z,22.07
2017-10-14T07:20:29.633Z,26.60
2017-10-14T07:22:55.709Z,25.37
2017-10-14T07:25:21.773Z,24.40
2017-10-14T07:27:47.899Z,21.93
2017-10-14T07:30:13.960Z,20.87
2017-10-14T07:32:40.055Z,25.10
2017-10-14T07:35:06.210Z,23.63
2017-10-14T07:37:32.280Z,25.07
2017-10-14T07:39:58.374Z,19.57
2017-10-14T07:42:24.468Z,19.40
2017-10-14T07:44:50.578Z,18.43
2017-10-14T07:47:16.673Z,26.93
2017-10-14T07:49:42.752Z,21.93
2017-10-14T07:52:08.862Z,22.00
2017-10-14T07:54:34.931Z,21.00
2017-10-14T07:57:01.037Z,19.20
2017-10-14T07:59:27.108Z,17.33
2017-10-14T08:01:53.245Z,17.33
2017-10-14T08:04:19.349Z,15.33
2017-10-14T08:06:45.442Z,21.03
2017-10-14T08:09:11.552Z,16.60
2017-10-14T08:11:37.660Z,17.60
2017-10-14T08:14:06.612Z,15.70
2017-10-14T08:16:32.796Z,15.90
2017-10-14T08:18:58.917Z,15.03
2017-10-14T08:21:25.058Z,17.40
2017-10-14T08:23:52.004Z,14.73
2017-10-14T08:26:18.840Z,18.27
2017-10-14T08:28:45.031Z,18.83
2017-10-14T08:31:11.104Z,15.37
2017-10-14T08:33:37.308Z,13.60
2017-10-14T08:36:03.406Z,23.77
2017-10-14T08:38:30.290Z,17.07
2017-10-14T08:40:56.475Z,13.40
2017-10-14T08:43:22.587Z,15.63
2017-10-14T08:45:48.652Z,16.63
2017-10-14T08:48:14.759Z,18.17
2017-10-14T08:50:40.915Z,19.50
2017-10-14T08:53:06.987Z,14.03
2017-10-14T08:55:33.092Z,16.17
2017-10-14T08:57:59.183Z,14.60
2017-10-14T09:00:26.105Z,17.83
2017-10-14T09:02:52.329Z,16.50
2017-10-14T09:05:18.418Z,18.03
2017-10-14T09:07:44.562Z,14.80
2017-10-14T09:10:10.622Z,16.13
2017-10-14T09:12:36.693Z,15.93
2017-10-14T09:15:02.832Z,13.60
2017-10-14T09:17:29.024Z,15.30
2017-10-14T09:19:55.092Z,16.90
2017-10-14T09:22:21.189Z,16.70
2017-10-14T09:24:47.288Z,15.43
2017-10-14T09:27:13.404Z,16.33
2017-10-14T09:29:39.520Z,20.43
2017-10-14T09:32:05.688Z,21.83
2017-10-14T09:34:31.786Z,15.20
2017-10-14T09:36:57.885Z,19.90
2017-10-14T09:39:23.974Z,16.93
2017-10-14T09:41:50.074Z,15.07
2017-10-14T09:44:16.880Z,19.23
2017-10-14T09:46:43.033Z,18.87
2017-10-14T09:49:09.126Z,21.50
2017-10-14T09:51:35.200Z,16.97
2017-10-14T09:54:01.279Z,17.70
2017-10-14T09:56:28.129Z,20.37
2017-10-14T09:58:54.938Z,20.77
2017-10-14T10:01:21.063Z,24.80
2017-10-14T10:03:47.124Z,19.33
2017-10-14T10:06:13.193Z,23.83
2017-10-14T10:08:40.081Z,21.80
2017-10-14T10:11:06.267Z,28.00
2017-10-14T10:13:32.319Z,26.33
2017-10-14T10:15:58.410Z,23.60
2017-10-14T10:18:24.479Z,22.57
2017-10-14T10:20:50.553Z,23.63
2017-10-14T10:23:16.693Z,22.93
2017-10-14T10:25:42.782Z,27.90
2017-10-14T10:28:08.919Z,26.20
2017-10-14T10:30:42.432Z,28.27
2017-10-14T10:33:08.528Z,24.63
2017-10-14T10:35:34.616Z,28.10
2017-10-14T10:38:00.860Z,25.60
2017-10-14T10:40:26.948Z,24.10
2017-10-14T10:42:53.122Z,35.87
2017-10-14T10:45:19.257Z,47.73
2017-10-14T10:47:45.362Z,47.60
2017-10-14T10:50:11.635Z,33.13
2017-10-14T10:52:37.701Z,46.97
2017-10-14T10:55:03.821Z,48.97
2017-10-14T10:57:30.677Z,72.00
2017-10-14T10:59:56.803Z,43.57
2017-10-14T11:02:23.026Z,42.10
2017-10-14T11:04:49.232Z,36.30
2017-10-14T11:07:15.314Z,35.30
2017-10-14T11:09:41.477Z,141.67
2017-10-14T11:12:07.586Z,134.63
2017-10-14T11:14:33.728Z,98.40
2017-10-14T11:16:59.877Z,68.23
2017-10-14T11:19:26.012Z,145.40
2017-10-14T11:21:52.880Z,196.93
2017-10-14T11:24:18.974Z,38.30
2017-10-14T11:26:45.082Z,55.77
2017-10-14T11:29:11.928Z,49.27
2017-10-14T11:31:38.030Z,73.83
2017-10-14T11:34:04.162Z,44.30
2017-10-14T11:36:30.368Z,51.70
2017-10-14T11:38:56.452Z,27.50
2017-10-14T11:41:22.656Z,82.47
2017-10-14T11:43:48.736Z,138.20
2017-10-14T11:46:15.113Z,170.07
2017-10-14T11:48:41.964Z,66.67
2017-10-14T11:51:08.067Z,38.03
2017-10-14T11:53:34.252Z,100.33
2017-10-14T11:56:00.392Z,117.37
2017-10-14T11:58:26.712Z,233.53
2017-10-14T12:00:52.822Z,264.23
2017-10-14T12:03:19.010Z,225.93
2017-10-14T12:05:45.179Z,216.77
2017-10-14T12:08:11.260Z,288.67
2017-10-14T12:10:37.391Z,222.83
2017-10-14T12:13:03.535Z,452.23
2017-10-14T12:15:29.724Z,82.33
2017-10-14T12:17:56.010Z,463.87
2017-10-14T12:20:22.560Z,346.30
2017-10-14T12:22:48.655Z,76.57
2017-10-14T12:25:14.772Z,82.27
2017-10-14T12:27:40.889Z,49.43
2017-10-14T12:30:07.066Z,133.43
2017-10-14T12:32:33.149Z,61.33
2017-10-14T12:34:59.255Z,60.33
2017-10-14T12:37:26.195Z,141.40
2017-10-14T12:39:52.322Z,38.40
2017-10-14T12:42:18.467Z,50.93
2017-10-14T12:44:44.603Z,82.40
2017-10-14T12:47:10.735Z,190.97
2017-10-14T12:49:36.838Z,129.77
2017-10-14T12:52:03.022Z,105.67
2017-10-14T12:54:29.250Z,30.80
2017-10-14T12:56:55.518Z,65.87
2017-10-14T12:59:21.756Z,30.43
2017-10-14T13:01:48.315Z,28.97
2017-10-14T13:04:14.637Z,24.67
2017-10-14T13:06:40.729Z,61.47
2017-10-14T13:09:06.810Z,27.23
2017-10-14T13:11:32.963Z,57.87
2017-10-14T13:13:59.111Z,63.23
2017-10-14T13:16:25.248Z,56.73
2017-10-14T13:18:51.577Z,75.70
2017-10-14T13:21:17.713Z,46.23
2017-10-14T13:23:43.963Z,27.33
2017-10-14T13:26:10.047Z,57.33
2017-10-14T13:28:36.906Z,85.60
2017-10-14T13:31:03.080Z,184.07
2017-10-14T13:33:29.196Z,103.00
2017-10-14T13:35:56.078Z,194.00
2017-10-14T13:38:22.217Z,74.07
2017-10-14T13:40:48.311Z,198.13
2017-10-14T13:43:14.425Z,86.87
2017-10-14T13:45:40.593Z,74.27
2017-10-14T13:48:07.505Z,58.87
2017-10-14T13:50:33.628Z,89.10
2017-10-14T13:52:59.729Z,107.60
2017-10-14T13:55:26.560Z,59.63
2017-10-14T13:57:52.745Z,51.20
2017-10-14T14:00:18.813Z,50.17
2017-10-14T14:02:44.904Z,66.37
2017-10-14T14:05:11.765Z,32.27
2017-10-14T14:07:38.611Z,128.43
2017-10-14T14:10:05.426Z,42.70
2017-10-14T14:12:31.528Z,68.00
2017-10-14T14:14:57.605Z,29.30
2017-10-14T14:17:23.853Z,31.80
2017-10-14T14:19:49.972Z,25.93
2017-10-14T14:22:16.121Z,37.43
2017-10-14T14:24:42.203Z,59.97
2017-10-14T14:27:09.046Z,97.17
2017-10-14T14:29:35.876Z,133.33
2017-10-14T14:32:02.005Z,126.60
2017-10-14T14:34:28.124Z,117.93
2017-10-14T14:36:54.256Z,170.90
2017-10-14T14:39:20.405Z,190.07
2017-10-14T14:41:46.531Z,209.73
2017-10-14T14:44:12.719Z,208.87
2017-10-14T14:46:38.859Z,237.30
2017-10-14T14:49:05.089Z,127.27
2017-10-14T14:51:31.163Z,148.20
2017-10-14T14:53:58.056Z,166.63
2017-10-14T14:56:24.321Z,323.77
2017-10-14T14:58:50.519Z,141.17
2017-10-14T15:01:16.636Z,200.40
2017-10-14T15:03:43.663Z,75.67
2017-10-14T15:06:09.791Z,59.83
2017-10-14T15:08:35.952Z,115.93
2017-10-14T15:11:02.345Z,254.47
2017-10-14T15:13:28.526Z,173.43
2017-10-14T15:15:54.642Z,500.07
2017-10-14T15:18:20.870Z,148.03
2017-10-14T15:20:47.013Z,147.77
2017-10-14T15:23:13.114Z,568.17
2017-10-14T15:25:39.955Z,196.63
2017-10-14T15:28:06.781Z,73.17
2017-10-14T15:30:33.013Z,237.30
2017-10-14T15:32:59.203Z,129.10
2017-10-14T15:35:25.398Z,209.13
2017-10-14T15:37:51.520Z,244.13
2017-10-14T15:40:17.749Z,384.37
2017-10-14T15:42:44.157Z,206.13
2017-10-14T15:45:10.278Z,355.97
2017-10-14T15:47:36.393Z,213.37
2017-10-14T15:50:02.486Z,103.53
2017-10-14T15:52:28.591Z,278.80
2017-10-14T15:54:54.705Z,158.87
2017-10-14T15:57:20.809Z,114.27
2017-10-14T15:59:46.896Z,113.30
2017-10-14T16:02:13.000Z,91.97
2017-10-14T16:04:39.128Z,65.60
2017-10-14T16:07:05.253Z,30.20
2017-10-14T16:09:31.368Z,70.73
2017-10-14T16:11:58.189Z,81.67
2017-10-14T16:14:24.277Z,33.73
2017-10-14T16:16:50.374Z,58.77
2017-10-14T16:19:16.481Z,42.37
2017-10-14T16:21:42.612Z,50.37
2017-10-14T16:24:08.893Z,47.23
2017-10-14T16:26:34.956Z,85.13
2017-10-14T16:29:01.807Z,84.67
2017-10-14T16:31:28.680Z,99.57
2017-10-14T16:33:54.835Z,95.87
2017-10-14T16:36:20.944Z,45.00
2017-10-14T16:38:47.099Z,87.37
2017-10-14T16:41:13.167Z,82.53
2017-10-14T16:43:39.285Z,118.80
2017-10-14T16:46:05.391Z,128.30
2017-10-14T16:48:32.196Z,67.63
2017-10-14T16:50:58.277Z,310.40
2017-10-14T16:53:25.134Z,252.27
2017-10-14T16:55:51.377Z,182.77
2017-10-14T16:58:18.295Z,124.33
2017-10-14T17:00:44.649Z,168.87
2017-10-14T17:03:10.749Z,159.47
2017-10-14T17:05:36.851Z,58.33
2017-10-14T17:08:03.701Z,175.80
2017-10-14T17:10:30.528Z,124.53
2017-10-14T17:12:56.613Z,132.60
2017-10-14T17:15:22.733Z,229.50
2017-10-14T17:17:49.272Z,64.37
2017-10-14T17:20:15.358Z,134.10
2017-10-14T17:22:41.460Z,92.67
2017-10-14T17:25:08.312Z,86.23
2017-10-14T17:27:35.167Z,74.97
2017-10-14T17:30:02.136Z,97.03
2017-10-14T17:32:28.984Z,125.80
2017-10-14T17:34:55.892Z,92.30
2017-10-14T17:37:22.300Z,143.80
2017-10-14T17:39:48.433Z,129.37
2017-10-14T17:42:14.499Z,128.53
2017-10-14T17:44:40.595Z,129.57
2017-10-14T17:47:07.499Z,73.60
2017-10-14T17:49:33.623Z,63.50
2017-10-14T17:51:59.770Z,114.43
2017-10-14T17:54:25.976Z,62.13
2017-10-14T17:56:53.625Z,72.17
2017-10-14T17:59:23.033Z,103.47
2017-10-14T18:01:49.361Z,89.50
2017-10-14T18:04:15.499Z,78.43
2017-10-14T18:06:41.590Z,114.90
2017-10-14T18:09:08.424Z,86.07
2017-10-14T18:11:35.245Z,70.53
2017-10-14T18:14:01.364Z,64.53
2017-10-14T18:16:27.484Z,68.83
2017-10-14T18:18:53.562Z,80.70
2017-10-14T18:21:19.663Z,89.03
2017-10-14T18:23:45.760Z,77.53
2017-10-14T18:26:11.838Z,55.73
2017-10-14T18:28:37.944Z,72.60
2017-10-14T18:31:04.063Z,61.73
2017-10-14T18:33:30.175Z,64.07
2017-10-14T18:35:56.264Z,71.67
2017-10-14T18:38:23.070Z,66.17
2017-10-14T18:40:49.152Z,60.93
2017-10-14T18:43:15.995Z,58.93
2017-10-14T18:45:42.062Z,64.00
2017-10-14T18:48:08.131Z,59.17
2017-10-14T18:50:34.280Z,58.10
2017-10-14T18:53:00.355Z,60.47
2017-10-14T18:55:27.235Z,63.73
2017-10-14T18:57:53.333Z,60.77
2017-10-14T19:00:19.427Z,59.03
2017-10-14T19:02:45.574Z,58.93
2017-10-14T19:05:11.718Z,65.33
2017-10-14T19:07:37.805Z,67.17
2017-10-14T19:10:04.653Z,63.33
2017-10-14T19:12:31.509Z,58.60
2017-10-14T19:14:58.316Z,65.60
2017-10-14T19:17:24.404Z,61.40
2017-10-14T19:19:50.604Z,65.20
2017-10-14T19:22:16.679Z,61.30
2017-10-14T19:24:43.485Z,68.30
2017-10-14T19:27:09.621Z,66.90
2017-10-14T19:29:35.697Z,63.77
2017-10-14T19:32:01.792Z,64.80
2017-10-14T19:34:27.945Z,62.50
2017-10-14T19:36:54.020Z,64.57
2017-10-14T19:39:20.836Z,63.23
2017-10-14T19:41:46.953Z,62.33
2017-10-14T19:44:13.020Z,57.03
2017-10-14T19:46:39.101Z,55.73
2017-10-14T19:49:05.933Z,58.93
2017-10-14T19:51:32.032Z,55.53
2017-10-14T19:53:58.100Z,54.97
2017-10-14T19:56:24.232Z,57.10
2017-10-14T19:58:50.292Z,71.60
2017-10-14T20:01:17.095Z,59.87
2017-10-14T20:03:43.214Z,60.10
2017-10-14T20:06:09.298Z,58.00
2017-10-14T20:08:35.414Z,54.10
2017-10-14T20:11:01.607Z,79.37
2017-10-14T20:13:27.683Z,78.63
2017-10-14T20:15:53.764Z,53.20
2017-10-14T20:18:19.850Z,59.13
2017-10-14T20:20:45.916Z,53.77
2017-10-14T20:23:11.976Z,59.87
2017-10-14T20:25:38.068Z,59.90
2017-10-14T20:28:04.154Z,63.37
2017-10-14T20:30:30.973Z,64.70
2017-10-14T20:32:57.069Z,59.17
2017-10-14T20:35:23.189Z,50.70
2017-10-14T20:37:50.009Z,49.20
2017-10-14T20:40:16.116Z,54.20
2017-10-14T20:42:42.174Z,61.63
2017-10-14T20:45:08.244Z,53.13
2017-10-14T20:47:34.344Z,61.10
2017-10-14T20:50:00.421Z,51.67
2017-10-14T20:52:27.274Z,60.53
2017-10-14T20:54:54.124Z,53.73
2017-10-14T20:57:20.472Z,60.03
2017-10-14T20:59:46.526Z,56.73
2017-10-14T21:02:13.390Z,70.80
2017-10-14T21:04:39.444Z,66.63
2017-10-14T21:07:05.520Z,69.33
2017-10-14T21:09:31.626Z,66.57
2017-10-14T21:11:57.695Z,66.87
2017-10-14T21:14:24.018Z,63.00
2017-10-14T21:16:50.154Z,55.80
2017-10-14T21:19:16.212Z,52.27
2017-10-14T21:21:42.276Z,56.53
2017-10-14T21:24:09.145Z,53.73
2017-10-14T21:26:35.951Z,48.43
2017-10-14T21:29:02.052Z,48.40
2017-10-14T21:31:28.219Z,49.27
2017-10-14T21:33:54.279Z,44.50
2017-10-14T21:36:20.430Z,43.53
2017-10-14T21:38:47.271Z,43.00
2017-10-14T21:41:13.364Z,46.43
2017-10-14T21:43:39.421Z,46.43
2017-10-14T21:46:05.503Z,43.67
2017-10-14T21:48:32.329Z,50.27
2017-10-14T21:50:58.405Z,41.53
2017-10-14T21:53:25.239Z,44.30
2017-10-14T21:55:52.263Z,42.17
2017-10-14T21:58:18.332Z,45.17
2017-10-14T22:00:44.426Z,51.90
2017-10-14T22:03:10.496Z,46.80
2017-10-14T22:05:36.547Z,51.90
2017-10-14T22:08:03.382Z,57.50
2017-10-14T22:10:29.464Z,55.90
2017-10-14T22:12:55.628Z,50.30
2017-10-14T22:15:21.812Z,52.97
2017-10-14T22:17:47.892Z,50.80
2017-10-14T22:20:13.955Z,46.40
2017-10-14T22:22:40.061Z,57.13
2017-10-14T22:25:06.151Z,58.00
2017-10-14T22:27:32.229Z,55.13
2017-10-14T22:29:58.319Z,47.00
2017-10-14T22:32:24.404Z,56.80
2017-10-14T22:34:50.489Z,47.23
2017-10-14T22:37:16.621Z,55.03
2017-10-14T22:39:42.684Z,50.33
2017-10-14T22:42:08.769Z,47.67
2017-10-14T22:44:34.908Z,49.83
2017-10-14T22:47:00.980Z,53.83
2017-10-14T22:49:27.065Z,50.53
2017-10-14T22:51:53.167Z,47.63
2017-10-14T22:54:19.240Z,51.27
2017-10-14T22:56:45.304Z,53.23
2017-10-14T22:59:11.396Z,49.73
2017-10-14T23:01:38.213Z,46.50
2017-10-14T23:04:04.376Z,44.07
2017-10-14T23:06:30.491Z,55.23
2017-10-14T23:08:57.062Z,50.93
2017-10-14T23:11:23.220Z,49.50
2017-10-14T23:13:49.333Z,54.60
2017-10-14T23:16:15.436Z,52.20
2017-10-14T23:18:41.502Z,53.93
2017-10-14T23:21:07.581Z,51.80
2017-10-14T23:23:33.647Z,50.77
2017-10-14T23:26:01.104Z,54.00
2017-10-14T23:28:27.753Z,47.70
2017-10-14T23:30:54.883Z,51.90
2017-10-14T23:33:21.892Z,49.20
2017-10-14T23:35:48.164Z,54.03
2017-10-14T23:38:14.248Z,55.50
2017-10-14T23:40:40.340Z,52.07
2017-10-14T23:43:06.396Z,59.03
2017-10-14T23:45:32.492Z,62.27
2017-10-14T23:47:58.550Z,56.67
2017-10-14T23:50:24.891Z,57.47
2017-10-14T23:52:51.232Z,53.80
2017-10-14T23:55:17.300Z,51.00
2017-10-14T23:57:44.120Z,55.80
